STW171 LTBS-UUEE
Flight info
| Callsign | STW171 |
|---|---|
| Flight time | 4h 2m |
| Altitude | 32000 |
| Route | KEKIK DCT YOYYO UG80 IMR UN127 LMO DCT ATFIR N133 LOMOS DCT NARKA DCT KEKED/N0474F310 DCT PODAN DCT VABER/N0475F330 DCT LAUGA DCT IGORO/K0876F330 M864 DIPOP DIPOP3F |
| Aircraft | B77W/H-SDE2E3FGHIJ5LORVWXY/LB1D1 |
Departure
| Time | 2026-05-06 14:04 |
|---|---|
| Airport | Dalaman International Airport (LTBS) |
Arrival
| Time | 2026-05-06 18:06 |
|---|---|
| Airport | Sheremetyevo International Airport (UUEE) |
| Time | Latitude | Longitude | Altitude | Speed | Heading |
|---|---|---|---|---|---|
| 2026-05-06 12:59 | 36.72453 | 28.79125 | 35 ft | 0 kts | 285° |
| 2026-05-06 13:53 | 36.72452 | 28.79133 | 34 ft | 2 kts | 285° |
| 2026-05-06 13:53 | 36.72448 | 28.79150 | 34 ft | 2 kts | 287° |
| 2026-05-06 13:53 | 36.72442 | 28.79167 | 34 ft | 2 kts | 308° |
| 2026-05-06 13:54 | 36.72431 | 28.79180 | 34 ft | 2 kts | 325° |
| 2026-05-06 13:54 | 36.72419 | 28.79189 | 34 ft | 2 kts | 341° |
| 2026-05-06 13:54 | 36.72404 | 28.79193 | 34 ft | 2 kts | 358° |
| 2026-05-06 13:54 | 36.72390 | 28.79192 | 34 ft | 1 kts | 13° |
| 2026-05-06 13:55 | 36.72386 | 28.79191 | 34 ft | 0 kts | 16° |
| 2026-05-06 13:59 | 36.72408 | 28.79199 | 34 ft | 7 kts | 16° |
| 2026-05-06 13:59 | 36.72460 | 28.79217 | 34 ft | 7 kts | 15° |
| 2026-05-06 14:00 | 36.72514 | 28.79235 | 34 ft | 7 kts | 15° |
| 2026-05-06 14:00 | 36.72563 | 28.79251 | 34 ft | 6 kts | 15° |
| 2026-05-06 14:00 | 36.72605 | 28.79265 | 34 ft | 5 kts | 15° |
| 2026-05-06 14:00 | 36.72640 | 28.79277 | 34 ft | 4 kts | 15° |
| 2026-05-06 14:01 | 36.72669 | 28.79289 | 34 ft | 4 kts | 25° |
| 2026-05-06 14:01 | 36.72687 | 28.79321 | 34 ft | 5 kts | 79° |
| 2026-05-06 14:01 | 36.72681 | 28.79376 | 34 ft | 7 kts | 105° |
| 2026-05-06 14:01 | 36.72668 | 28.79441 | 34 ft | 8 kts | 105° |
| 2026-05-06 14:02 | 36.72652 | 28.79518 | 34 ft | 9 kts | 105° |
| 2026-05-06 14:02 | 36.72632 | 28.79605 | 34 ft | 10 kts | 108° |
| 2026-05-06 14:02 | 36.72613 | 28.79670 | 34 ft | 4 kts | 119° |
| 2026-05-06 14:02 | 36.72589 | 28.79683 | 34 ft | 3 kts | 183° |
| 2026-05-06 14:03 | 36.72570 | 28.79678 | 34 ft | 2 kts | 194° |
| 2026-05-06 14:03 | 36.72560 | 28.79675 | 34 ft | 0 kts | 195° |
| 2026-05-06 14:03 | 36.72536 | 28.79667 | 34 ft | 15 kts | 195° |
| 2026-05-06 14:03 | 36.72215 | 28.79559 | 34 ft | 79 kts | 195° |
| 2026-05-06 14:04 | 36.71491 | 28.79312 | 35 ft | 135 kts | 195° |
| 2026-05-06 14:04 | 36.70435 | 28.78951 | 149 ft | 170 kts | 194° |
| 2026-05-06 14:04 | 36.69273 | 28.78563 | 635 ft | 179 kts | 194° |
| 2026-05-06 14:04 | 36.68058 | 28.78167 | 1192 ft | 181 kts | 194° |
| 2026-05-06 14:05 | 36.66804 | 28.77755 | 1492 ft | 188 kts | 195° |
| 2026-05-06 14:05 | 36.65528 | 28.77319 | 1789 ft | 195 kts | 197° |
| 2026-05-06 14:05 | 36.64261 | 28.76743 | 2121 ft | 197 kts | 212° |
| 2026-05-06 14:05 | 36.63253 | 28.75593 | 2471 ft | 197 kts | 237° |
| 2026-05-06 14:06 | 36.62729 | 28.74049 | 2830 ft | 195 kts | 262° |
| 2026-05-06 14:06 | 36.62762 | 28.72392 | 3179 ft | 196 kts | 283° |
| 2026-05-06 14:06 | 36.63140 | 28.70686 | 3272 ft | 213 kts | 287° |
| 2026-05-06 14:06 | 36.63559 | 28.68858 | 3403 ft | 230 kts | 287° |
| 2026-05-06 14:07 | 36.64001 | 28.66863 | 3563 ft | 248 kts | 287° |
| 2026-05-06 14:07 | 36.64474 | 28.64715 | 3888 ft | 260 kts | 287° |
| 2026-05-06 14:07 | 36.64949 | 28.62550 | 4410 ft | 262 kts | 287° |
| 2026-05-06 14:07 | 36.65597 | 28.60446 | 4919 ft | 262 kts | 305° |
| 2026-05-06 14:08 | 36.66822 | 28.58787 | 5422 ft | 262 kts | 321° |
| 2026-05-06 14:08 | 36.68236 | 28.57337 | 5990 ft | 262 kts | 323° |
| 2026-05-06 14:08 | 36.69649 | 28.55934 | 6527 ft | 263 kts | 323° |
| 2026-05-06 14:08 | 36.71075 | 28.54517 | 7054 ft | 264 kts | 323° |
| 2026-05-06 14:09 | 36.72518 | 28.53079 | 7524 ft | 268 kts | 323° |
| 2026-05-06 14:09 | 36.73991 | 28.51610 | 8011 ft | 270 kts | 323° |
| 2026-05-06 14:09 | 36.75446 | 28.50156 | 8496 ft | 271 kts | 323° |
| 2026-05-06 14:09 | 36.76923 | 28.48682 | 8972 ft | 273 kts | 324° |
| 2026-05-06 14:10 | 36.78551 | 28.47512 | 9386 ft | 274 kts | 342° |
| 2026-05-06 14:10 | 36.80375 | 28.46782 | 9907 ft | 273 kts | 345° |
| 2026-05-06 14:10 | 36.82214 | 28.46118 | 10234 ft | 280 kts | 345° |
| 2026-05-06 14:10 | 36.84126 | 28.45429 | 10310 ft | 297 kts | 345° |
| 2026-05-06 14:11 | 36.86190 | 28.44682 | 10397 ft | 313 kts | 345° |
| 2026-05-06 14:11 | 36.88245 | 28.43687 | 10461 ft | 331 kts | 330° |
| 2026-05-06 14:11 | 36.90177 | 28.41983 | 10537 ft | 347 kts | 324° |
| 2026-05-06 14:11 | 36.92136 | 28.40089 | 10871 ft | 355 kts | 324° |
| 2026-05-06 14:12 | 36.94082 | 28.38195 | 11419 ft | 357 kts | 324° |
| 2026-05-06 14:12 | 36.96043 | 28.36285 | 12015 ft | 358 kts | 323° |
| 2026-05-06 14:12 | 36.98004 | 28.34372 | 12645 ft | 360 kts | 323° |
| 2026-05-06 14:12 | 36.99982 | 28.32443 | 13278 ft | 362 kts | 323° |
| 2026-05-06 14:13 | 37.01955 | 28.30515 | 13951 ft | 364 kts | 322° |
| 2026-05-06 14:13 | 37.03957 | 28.28560 | 14615 ft | 367 kts | 322° |
| 2026-05-06 14:13 | 37.05973 | 28.26589 | 15297 ft | 370 kts | 322° |
| 2026-05-06 14:13 | 37.07996 | 28.24609 | 16038 ft | 372 kts | 322° |
| 2026-05-06 14:14 | 37.10031 | 28.22617 | 16717 ft | 374 kts | 322° |
| 2026-05-06 14:14 | 37.12093 | 28.20596 | 17380 ft | 378 kts | 322° |
| 2026-05-06 14:14 | 37.14169 | 28.18560 | 17994 ft | 382 kts | 322° |
| 2026-05-06 14:14 | 37.16259 | 28.16508 | 18646 ft | 385 kts | 322° |
| 2026-05-06 14:15 | 37.18377 | 28.14428 | 19345 ft | 386 kts | 322° |
| 2026-05-06 14:15 | 37.20498 | 28.12343 | 19970 ft | 389 kts | 322° |
| 2026-05-06 14:15 | 37.22608 | 28.10268 | 20549 ft | 393 kts | 322° |
| 2026-05-06 14:15 | 37.24773 | 28.08136 | 21159 ft | 396 kts | 322° |
| 2026-05-06 14:16 | 37.26934 | 28.06007 | 21778 ft | 397 kts | 322° |
| 2026-05-06 14:16 | 37.29109 | 28.03863 | 22299 ft | 401 kts | 322° |
| 2026-05-06 14:16 | 37.31311 | 28.01691 | 22841 ft | 404 kts | 322° |
| 2026-05-06 14:16 | 37.33529 | 27.99500 | 23425 ft | 406 kts | 322° |
| 2026-05-06 14:17 | 37.35733 | 27.97322 | 23937 ft | 409 kts | 322° |
| 2026-05-06 14:17 | 37.37967 | 27.95113 | 24485 ft | 410 kts | 322° |
| 2026-05-06 14:17 | 37.40211 | 27.92891 | 25031 ft | 412 kts | 322° |
| 2026-05-06 14:17 | 37.42473 | 27.90650 | 25534 ft | 413 kts | 322° |
| 2026-05-06 14:18 | 37.44745 | 27.88397 | 25990 ft | 416 kts | 322° |
| 2026-05-06 14:18 | 37.47001 | 27.86160 | 26453 ft | 418 kts | 322° |
| 2026-05-06 14:18 | 37.49293 | 27.83883 | 26927 ft | 420 kts | 322° |
| 2026-05-06 14:18 | 37.51572 | 27.81618 | 27357 ft | 422 kts | 322° |
| 2026-05-06 14:19 | 37.53903 | 27.79300 | 27807 ft | 424 kts | 322° |
| 2026-05-06 14:19 | 37.56193 | 27.77020 | 28242 ft | 426 kts | 322° |
| 2026-05-06 14:19 | 37.58527 | 27.74694 | 28655 ft | 428 kts | 322° |
| 2026-05-06 14:19 | 37.60859 | 27.72368 | 29033 ft | 430 kts | 322° |
| 2026-05-06 14:20 | 37.63199 | 27.70034 | 29470 ft | 431 kts | 322° |
| 2026-05-06 14:20 | 37.65539 | 27.67696 | 30010 ft | 429 kts | 322° |
| 2026-05-06 14:20 | 37.67864 | 27.65371 | 30610 ft | 426 kts | 322° |
| 2026-05-06 14:20 | 37.70204 | 27.63031 | 31221 ft | 422 kts | 322° |
| 2026-05-06 14:21 | 37.72468 | 27.60763 | 31753 ft | 419 kts | 322° |
| 2026-05-06 14:21 | 37.74775 | 27.58451 | 32025 ft | 421 kts | 322° |
| 2026-05-06 14:21 | 37.79352 | 27.53857 | 32038 ft | 420 kts | 322° |
| 2026-05-06 14:22 | 37.83928 | 27.49256 | 32040 ft | 419 kts | 322° |
| 2026-05-06 14:22 | 37.88491 | 27.44662 | 32041 ft | 421 kts | 322° |
| 2026-05-06 14:23 | 37.93063 | 27.40051 | 32039 ft | 419 kts | 322° |
| 2026-05-06 14:23 | 37.97591 | 27.35477 | 32043 ft | 419 kts | 322° |
| 2026-05-06 14:24 | 38.02161 | 27.30852 | 32061 ft | 420 kts | 321° |
| 2026-05-06 14:24 | 38.06724 | 27.26227 | 32054 ft | 418 kts | 321° |
| 2026-05-06 14:25 | 38.11244 | 27.21637 | 32065 ft | 420 kts | 321° |
| 2026-05-06 14:25 | 38.15796 | 27.17008 | 32060 ft | 420 kts | 321° |
| 2026-05-06 14:26 | 38.20382 | 27.12334 | 32062 ft | 420 kts | 321° |
| 2026-05-06 14:26 | 38.24922 | 27.07701 | 32064 ft | 420 kts | 321° |
| 2026-05-06 14:27 | 38.29460 | 27.03062 | 32069 ft | 420 kts | 321° |
| 2026-05-06 14:27 | 38.33977 | 26.98327 | 32066 ft | 419 kts | 320° |
| 2026-05-06 14:28 | 38.38365 | 26.93456 | 32055 ft | 419 kts | 320° |
| 2026-05-06 14:28 | 38.42778 | 26.88562 | 32049 ft | 421 kts | 320° |
| 2026-05-06 14:29 | 38.47203 | 26.83654 | 32044 ft | 419 kts | 320° |
| 2026-05-06 14:29 | 38.51585 | 26.78791 | 32050 ft | 420 kts | 320° |
| 2026-05-06 14:30 | 38.56011 | 26.73873 | 32046 ft | 422 kts | 319° |
| 2026-05-06 14:30 | 38.60437 | 26.68947 | 32048 ft | 421 kts | 319° |
| 2026-05-06 14:31 | 38.64869 | 26.64007 | 32050 ft | 422 kts | 319° |
| 2026-05-06 14:31 | 38.69270 | 26.59092 | 32048 ft | 422 kts | 319° |
| 2026-05-06 14:32 | 38.73705 | 26.54133 | 32047 ft | 422 kts | 320° |
| 2026-05-06 14:32 | 38.78133 | 26.49172 | 32042 ft | 422 kts | 320° |
| 2026-05-06 14:33 | 38.82550 | 26.44215 | 32047 ft | 423 kts | 320° |
| 2026-05-06 14:33 | 38.87056 | 26.39344 | 32044 ft | 422 kts | 321° |
| 2026-05-06 14:34 | 38.91565 | 26.34583 | 32043 ft | 423 kts | 321° |
| 2026-05-06 14:34 | 38.96096 | 26.29780 | 32053 ft | 422 kts | 321° |
| 2026-05-06 14:35 | 39.00643 | 26.24946 | 32056 ft | 424 kts | 321° |
| 2026-05-06 14:35 | 39.05177 | 26.20114 | 32051 ft | 424 kts | 321° |
| 2026-05-06 14:36 | 39.09711 | 26.15271 | 32050 ft | 423 kts | 321° |
| 2026-05-06 14:36 | 39.14256 | 26.10408 | 32061 ft | 425 kts | 321° |
| 2026-05-06 14:37 | 39.18788 | 26.05550 | 32061 ft | 424 kts | 321° |
| 2026-05-06 14:37 | 39.23310 | 26.00695 | 32061 ft | 424 kts | 320° |
| 2026-05-06 14:38 | 39.27850 | 25.95811 | 32060 ft | 425 kts | 321° |
| 2026-05-06 14:38 | 39.32345 | 25.90885 | 32058 ft | 425 kts | 320° |
| 2026-05-06 14:39 | 39.36819 | 25.85888 | 32056 ft | 426 kts | 319° |
| 2026-05-06 14:39 | 39.41275 | 25.80908 | 32054 ft | 426 kts | 320° |
| 2026-05-06 14:40 | 39.45761 | 25.75889 | 32053 ft | 426 kts | 320° |
| 2026-05-06 14:40 | 39.50235 | 25.70876 | 32052 ft | 425 kts | 320° |
| 2026-05-06 14:41 | 39.54720 | 25.65844 | 32052 ft | 427 kts | 320° |
| 2026-05-06 14:41 | 39.59188 | 25.60822 | 32051 ft | 426 kts | 320° |
| 2026-05-06 14:42 | 39.63664 | 25.55782 | 32049 ft | 427 kts | 320° |
| 2026-05-06 14:42 | 39.68142 | 25.50731 | 32048 ft | 425 kts | 320° |
| 2026-05-06 14:43 | 39.72604 | 25.45689 | 32048 ft | 427 kts | 320° |
| 2026-05-06 14:43 | 39.77107 | 25.40592 | 32047 ft | 427 kts | 320° |
| 2026-05-06 14:44 | 39.81564 | 25.35539 | 32046 ft | 427 kts | 320° |
| 2026-05-06 14:45 | 39.88300 | 25.27883 | 32051 ft | 429 kts | 319° |
| 2026-05-06 14:45 | 39.92782 | 25.22789 | 32045 ft | 429 kts | 321° |
| 2026-05-06 14:46 | 39.97576 | 25.18186 | 32049 ft | 428 kts | 324° |
| 2026-05-06 14:46 | 40.02400 | 25.13612 | 32049 ft | 428 kts | 323° |
| 2026-05-06 14:47 | 40.07221 | 25.09000 | 32048 ft | 430 kts | 323° |
| 2026-05-06 14:47 | 40.12032 | 25.04372 | 32058 ft | 428 kts | 323° |
| 2026-05-06 14:48 | 40.16820 | 24.99749 | 32057 ft | 429 kts | 323° |
| 2026-05-06 14:48 | 40.21613 | 24.95108 | 32055 ft | 428 kts | 323° |
| 2026-05-06 14:49 | 40.26403 | 24.90461 | 32052 ft | 429 kts | 323° |
| 2026-05-06 14:49 | 40.31176 | 24.85820 | 32051 ft | 429 kts | 323° |
| 2026-05-06 14:50 | 40.35981 | 24.81138 | 32053 ft | 429 kts | 323° |
| 2026-05-06 14:50 | 40.40761 | 24.76473 | 32048 ft | 430 kts | 323° |
| 2026-05-06 14:51 | 40.45538 | 24.71802 | 32043 ft | 431 kts | 323° |
| 2026-05-06 14:51 | 40.50354 | 24.67084 | 32043 ft | 430 kts | 323° |
| 2026-05-06 14:52 | 40.55152 | 24.62375 | 32040 ft | 431 kts | 323° |
| 2026-05-06 14:52 | 40.59925 | 24.57683 | 32037 ft | 430 kts | 323° |
| 2026-05-06 14:53 | 40.64698 | 24.52981 | 32039 ft | 430 kts | 323° |
| 2026-05-06 14:53 | 40.69490 | 24.48251 | 32036 ft | 429 kts | 323° |
| 2026-05-06 14:54 | 40.74279 | 24.43518 | 32035 ft | 431 kts | 323° |
| 2026-05-06 14:54 | 40.79054 | 24.38788 | 32030 ft | 430 kts | 323° |
| 2026-05-06 14:55 | 40.83847 | 24.34032 | 32034 ft | 432 kts | 322° |
| 2026-05-06 14:55 | 40.88652 | 24.29254 | 32032 ft | 432 kts | 322° |
| 2026-05-06 14:56 | 40.93423 | 24.24502 | 32028 ft | 432 kts | 322° |
| 2026-05-06 14:56 | 40.98219 | 24.19717 | 32032 ft | 431 kts | 322° |
| 2026-05-06 14:57 | 41.02999 | 24.14938 | 32026 ft | 432 kts | 322° |
| 2026-05-06 14:57 | 41.07794 | 24.10136 | 32036 ft | 433 kts | 322° |
| 2026-05-06 14:58 | 41.12616 | 24.05297 | 32043 ft | 434 kts | 322° |
| 2026-05-06 14:58 | 41.17397 | 24.00491 | 32056 ft | 434 kts | 322° |
| 2026-05-06 14:59 | 41.22200 | 23.95652 | 32064 ft | 433 kts | 322° |
| 2026-05-06 14:59 | 41.27035 | 23.90773 | 32075 ft | 435 kts | 322° |
| 2026-05-06 15:00 | 41.31815 | 23.85940 | 32078 ft | 435 kts | 322° |
| 2026-05-06 15:00 | 41.36643 | 23.81112 | 32079 ft | 436 kts | 326° |
| 2026-05-06 15:01 | 41.42121 | 23.77608 | 32080 ft | 439 kts | 341° |
| 2026-05-06 15:01 | 41.48159 | 23.76202 | 32095 ft | 443 kts | 351° |
| 2026-05-06 15:02 | 41.54306 | 23.75396 | 32094 ft | 444 kts | 351° |
| 2026-05-06 15:02 | 41.60440 | 23.74560 | 32099 ft | 443 kts | 351° |
| 2026-05-06 15:03 | 41.66578 | 23.73704 | 32108 ft | 444 kts | 351° |
| 2026-05-06 15:03 | 41.72709 | 23.72837 | 32109 ft | 444 kts | 351° |
| 2026-05-06 15:04 | 41.78871 | 23.71961 | 32118 ft | 444 kts | 351° |
| 2026-05-06 15:04 | 41.85026 | 23.71081 | 32114 ft | 445 kts | 351° |
| 2026-05-06 15:05 | 41.91163 | 23.70201 | 32115 ft | 444 kts | 351° |
| 2026-05-06 15:05 | 41.97315 | 23.69316 | 32113 ft | 444 kts | 351° |
| 2026-05-06 15:06 | 42.03473 | 23.68429 | 32117 ft | 446 kts | 351° |
| 2026-05-06 15:06 | 42.09628 | 23.67540 | 32120 ft | 444 kts | 351° |
| 2026-05-06 15:07 | 42.15762 | 23.66652 | 32112 ft | 446 kts | 351° |
| 2026-05-06 15:07 | 42.21946 | 23.65756 | 32115 ft | 445 kts | 351° |
| 2026-05-06 15:08 | 42.28062 | 23.64867 | 32108 ft | 445 kts | 351° |
| 2026-05-06 15:08 | 42.34152 | 23.63209 | 32097 ft | 443 kts | 343° |
| 2026-05-06 15:09 | 42.40096 | 23.61151 | 32084 ft | 443 kts | 343° |
| 2026-05-06 15:09 | 42.46060 | 23.59085 | 32077 ft | 443 kts | 343° |
| 2026-05-06 15:10 | 42.52025 | 23.57016 | 32068 ft | 443 kts | 343° |
| 2026-05-06 15:10 | 42.58017 | 23.54934 | 32061 ft | 443 kts | 343° |
| 2026-05-06 15:11 | 42.63950 | 23.52871 | 32065 ft | 442 kts | 343° |
| 2026-05-06 15:11 | 42.69933 | 23.50785 | 32054 ft | 443 kts | 343° |
| 2026-05-06 15:12 | 42.75872 | 23.48711 | 32043 ft | 444 kts | 343° |
| 2026-05-06 15:12 | 42.81885 | 23.46607 | 32050 ft | 444 kts | 343° |
| 2026-05-06 15:13 | 42.87860 | 23.44512 | 32051 ft | 444 kts | 343° |
| 2026-05-06 15:13 | 42.93847 | 23.42408 | 32051 ft | 445 kts | 343° |
| 2026-05-06 15:14 | 42.99833 | 23.40301 | 32057 ft | 445 kts | 343° |
| 2026-05-06 15:14 | 43.05846 | 23.38180 | 32045 ft | 445 kts | 343° |
| 2026-05-06 15:15 | 43.11795 | 23.36078 | 32041 ft | 445 kts | 343° |
| 2026-05-06 15:15 | 43.17818 | 23.33945 | 32035 ft | 446 kts | 343° |
| 2026-05-06 15:16 | 43.23892 | 23.32348 | 32022 ft | 449 kts | 351° |
| 2026-05-06 15:16 | 43.30102 | 23.31594 | 32010 ft | 450 kts | 352° |
| 2026-05-06 15:17 | 43.36337 | 23.30837 | 32001 ft | 450 kts | 352° |
| 2026-05-06 15:17 | 43.42561 | 23.30064 | 32003 ft | 450 kts | 352° |
| 2026-05-06 15:18 | 43.48798 | 23.29286 | 31990 ft | 449 kts | 352° |
| 2026-05-06 15:18 | 43.55037 | 23.28509 | 31984 ft | 451 kts | 352° |
| 2026-05-06 15:19 | 43.61257 | 23.27742 | 31982 ft | 450 kts | 352° |
| 2026-05-06 15:19 | 43.67506 | 23.26968 | 31973 ft | 451 kts | 352° |
| 2026-05-06 15:20 | 43.73745 | 23.26194 | 31967 ft | 451 kts | 352° |
| 2026-05-06 15:20 | 43.79966 | 23.25421 | 31962 ft | 450 kts | 352° |
| 2026-05-06 15:21 | 43.86125 | 23.23945 | 31960 ft | 447 kts | 342° |
| 2026-05-06 15:21 | 43.92117 | 23.21650 | 31949 ft | 447 kts | 342° |
| 2026-05-06 15:22 | 43.98072 | 23.19358 | 31938 ft | 448 kts | 342° |
| 2026-05-06 15:22 | 44.04066 | 23.17049 | 31938 ft | 449 kts | 342° |
| 2026-05-06 15:23 | 44.10106 | 23.14719 | 31938 ft | 448 kts | 342° |
| 2026-05-06 15:23 | 44.16095 | 23.12405 | 31945 ft | 448 kts | 342° |
| 2026-05-06 15:24 | 44.22081 | 23.10087 | 31946 ft | 447 kts | 342° |
| 2026-05-06 15:24 | 44.28069 | 23.07763 | 31948 ft | 449 kts | 342° |
| 2026-05-06 15:25 | 44.34084 | 23.05425 | 31951 ft | 449 kts | 342° |
| 2026-05-06 15:25 | 44.40105 | 23.03079 | 31954 ft | 450 kts | 342° |
| 2026-05-06 15:26 | 44.46141 | 23.00722 | 31957 ft | 449 kts | 341° |
| 2026-05-06 15:26 | 44.52161 | 22.98367 | 31960 ft | 448 kts | 342° |
| 2026-05-06 15:27 | 44.58135 | 22.96024 | 31956 ft | 448 kts | 341° |
| 2026-05-06 15:27 | 44.64133 | 22.93667 | 31953 ft | 448 kts | 341° |
| 2026-05-06 15:28 | 44.70137 | 22.91303 | 31951 ft | 448 kts | 341° |
| 2026-05-06 15:28 | 44.76158 | 22.88926 | 31952 ft | 449 kts | 341° |
| 2026-05-06 15:29 | 44.82151 | 22.86556 | 31957 ft | 449 kts | 341° |
| 2026-05-06 15:29 | 44.88127 | 22.84187 | 31963 ft | 447 kts | 341° |
| 2026-05-06 15:30 | 44.94140 | 22.81799 | 31968 ft | 448 kts | 341° |
| 2026-05-06 15:30 | 45.00142 | 22.79409 | 31972 ft | 447 kts | 341° |
| 2026-05-06 15:31 | 45.06128 | 22.77021 | 31990 ft | 449 kts | 341° |
| 2026-05-06 15:31 | 45.12113 | 22.74628 | 32015 ft | 450 kts | 341° |
| 2026-05-06 15:32 | 45.21148 | 22.71006 | 32036 ft | 448 kts | 341° |
| 2026-05-06 15:32 | 45.27151 | 22.68592 | 32035 ft | 449 kts | 341° |
| 2026-05-06 15:33 | 45.33146 | 22.66177 | 32037 ft | 449 kts | 341° |
| 2026-05-06 15:33 | 45.39149 | 22.63752 | 32026 ft | 450 kts | 341° |
| 2026-05-06 15:34 | 45.45165 | 22.61318 | 32010 ft | 450 kts | 341° |
| 2026-05-06 15:34 | 45.51197 | 22.58871 | 31991 ft | 451 kts | 341° |
| 2026-05-06 15:35 | 45.57236 | 22.56416 | 31996 ft | 452 kts | 341° |
| 2026-05-06 15:35 | 45.63284 | 22.53952 | 32005 ft | 452 kts | 341° |
| 2026-05-06 15:36 | 45.69287 | 22.51501 | 32004 ft | 452 kts | 341° |
| 2026-05-06 15:36 | 45.75306 | 22.49038 | 32017 ft | 451 kts | 341° |
| 2026-05-06 15:37 | 45.81329 | 22.46567 | 32010 ft | 452 kts | 341° |
| 2026-05-06 15:37 | 45.87382 | 22.44079 | 31992 ft | 450 kts | 341° |
| 2026-05-06 15:38 | 45.93418 | 22.41592 | 31967 ft | 452 kts | 341° |
| 2026-05-06 15:38 | 45.99430 | 22.39109 | 31952 ft | 452 kts | 341° |
| 2026-05-06 15:39 | 46.05487 | 22.36602 | 31946 ft | 452 kts | 341° |
| 2026-05-06 15:39 | 46.11509 | 22.34104 | 31954 ft | 452 kts | 340° |
| 2026-05-06 15:40 | 46.17572 | 22.31583 | 31949 ft | 452 kts | 340° |
| 2026-05-06 15:40 | 46.23576 | 22.29081 | 31957 ft | 452 kts | 340° |
| 2026-05-06 15:41 | 46.29646 | 22.26546 | 31954 ft | 452 kts | 340° |
| 2026-05-06 15:41 | 46.35693 | 22.24013 | 31956 ft | 454 kts | 340° |
| 2026-05-06 15:42 | 46.41744 | 22.21475 | 31970 ft | 453 kts | 340° |
| 2026-05-06 15:42 | 46.47797 | 22.18929 | 31975 ft | 453 kts | 340° |
| 2026-05-06 15:43 | 46.53828 | 22.16386 | 31969 ft | 453 kts | 340° |
| 2026-05-06 15:43 | 46.59895 | 22.13823 | 31954 ft | 454 kts | 340° |
| 2026-05-06 15:44 | 46.65933 | 22.11265 | 31945 ft | 454 kts | 340° |
| 2026-05-06 15:44 | 46.72000 | 22.08690 | 31934 ft | 454 kts | 340° |
| 2026-05-06 15:45 | 46.78059 | 22.06111 | 31926 ft | 455 kts | 340° |
| 2026-05-06 15:45 | 46.84107 | 22.03532 | 31930 ft | 456 kts | 340° |
| 2026-05-06 15:46 | 46.90184 | 22.00933 | 31932 ft | 456 kts | 340° |
| 2026-05-06 15:46 | 46.96254 | 21.98332 | 31939 ft | 456 kts | 340° |
| 2026-05-06 15:47 | 47.02337 | 21.95719 | 31936 ft | 455 kts | 340° |
| 2026-05-06 15:47 | 47.08422 | 21.93099 | 31934 ft | 456 kts | 340° |
| 2026-05-06 15:48 | 47.14497 | 21.90477 | 31933 ft | 456 kts | 340° |
| 2026-05-06 15:48 | 47.20590 | 21.87841 | 31929 ft | 458 kts | 340° |
| 2026-05-06 15:49 | 47.26671 | 21.85204 | 31933 ft | 458 kts | 340° |
| 2026-05-06 15:49 | 47.32787 | 21.82539 | 31927 ft | 458 kts | 340° |
| 2026-05-06 15:50 | 47.38851 | 21.79890 | 31926 ft | 459 kts | 340° |
| 2026-05-06 15:50 | 47.44985 | 21.77205 | 31929 ft | 459 kts | 340° |
| 2026-05-06 15:51 | 47.51077 | 21.74532 | 31929 ft | 459 kts | 340° |
| 2026-05-06 15:51 | 47.57218 | 21.71831 | 31922 ft | 459 kts | 340° |
| 2026-05-06 15:52 | 47.63340 | 21.69131 | 31914 ft | 461 kts | 340° |
| 2026-05-06 15:52 | 47.69477 | 21.66419 | 31902 ft | 461 kts | 340° |
| 2026-05-06 15:53 | 47.75609 | 21.63702 | 31903 ft | 460 kts | 340° |
| 2026-05-06 15:53 | 47.81747 | 21.60975 | 31900 ft | 460 kts | 340° |
| 2026-05-06 15:54 | 47.87875 | 21.58246 | 31900 ft | 461 kts | 340° |
| 2026-05-06 15:54 | 47.94004 | 21.55510 | 31898 ft | 462 kts | 340° |
| 2026-05-06 15:55 | 48.00150 | 21.52760 | 31892 ft | 461 kts | 340° |
| 2026-05-06 15:55 | 48.06287 | 21.50007 | 31887 ft | 463 kts | 340° |
| 2026-05-06 15:56 | 48.12424 | 21.47246 | 31888 ft | 464 kts | 340° |
| 2026-05-06 15:56 | 48.18603 | 21.44461 | 31884 ft | 463 kts | 340° |
| 2026-05-06 15:57 | 48.24779 | 21.41669 | 31891 ft | 466 kts | 340° |
| 2026-05-06 15:57 | 48.27861 | 21.40275 | 31834 ft | 455 kts | 340° |
| 2026-05-06 15:57 | 48.30867 | 21.38914 | 31270 ft | 452 kts | 340° |
| 2026-05-06 15:58 | 48.33846 | 21.37561 | 30922 ft | 451 kts | 340° |
| 2026-05-06 15:58 | 48.36841 | 21.36197 | 30904 ft | 459 kts | 340° |
| 2026-05-06 15:58 | 48.43020 | 21.33381 | 30910 ft | 467 kts | 339° |
| 2026-05-06 15:59 | 48.49254 | 21.30577 | 30897 ft | 468 kts | 342° |
| 2026-05-06 15:59 | 48.55739 | 21.29697 | 30899 ft | 478 kts | 0° |
| 2026-05-06 16:00 | 48.62354 | 21.30732 | 30905 ft | 479 kts | 3° |
| 2026-05-06 16:00 | 48.68965 | 21.31840 | 30902 ft | 479 kts | 3° |
| 2026-05-06 16:01 | 48.75580 | 21.32941 | 30903 ft | 479 kts | 3° |
| 2026-05-06 16:01 | 48.82160 | 21.34032 | 30901 ft | 480 kts | 3° |
| 2026-05-06 16:02 | 48.88824 | 21.35138 | 30908 ft | 480 kts | 3° |
| 2026-05-06 16:02 | 48.95444 | 21.36237 | 30893 ft | 480 kts | 3° |
| 2026-05-06 16:03 | 49.02098 | 21.37344 | 30902 ft | 481 kts | 3° |
| 2026-05-06 16:03 | 49.08712 | 21.38447 | 30906 ft | 481 kts | 3° |
| 2026-05-06 16:04 | 49.15371 | 21.39560 | 30902 ft | 480 kts | 3° |
| 2026-05-06 16:04 | 49.21960 | 21.40664 | 30899 ft | 481 kts | 3° |
| 2026-05-06 16:05 | 49.28635 | 21.41786 | 30887 ft | 481 kts | 3° |
| 2026-05-06 16:05 | 49.35233 | 21.42898 | 30896 ft | 480 kts | 3° |
| 2026-05-06 16:06 | 49.41871 | 21.44174 | 30885 ft | 482 kts | 8° |
| 2026-05-06 16:06 | 49.48430 | 21.46542 | 30891 ft | 484 kts | 11° |
| 2026-05-06 16:07 | 49.54961 | 21.48974 | 30880 ft | 483 kts | 11° |
| 2026-05-06 16:07 | 49.61492 | 21.51409 | 30865 ft | 485 kts | 11° |
| 2026-05-06 16:08 | 49.68018 | 21.53845 | 30856 ft | 484 kts | 11° |
| 2026-05-06 16:08 | 49.74556 | 21.56291 | 30846 ft | 485 kts | 11° |
| 2026-05-06 16:09 | 49.81049 | 21.58727 | 30850 ft | 484 kts | 11° |
| 2026-05-06 16:09 | 49.87632 | 21.61202 | 30841 ft | 485 kts | 11° |
| 2026-05-06 16:10 | 49.94130 | 21.63653 | 30835 ft | 484 kts | 11° |
| 2026-05-06 16:10 | 50.00689 | 21.66133 | 30834 ft | 485 kts | 11° |
| 2026-05-06 16:11 | 50.07181 | 21.68595 | 30827 ft | 484 kts | 11° |
| 2026-05-06 16:11 | 50.13707 | 21.71077 | 30826 ft | 484 kts | 11° |
| 2026-05-06 16:12 | 50.20277 | 21.73582 | 30820 ft | 485 kts | 11° |
| 2026-05-06 16:12 | 50.26783 | 21.76070 | 30821 ft | 485 kts | 11° |
| 2026-05-06 16:13 | 50.33350 | 21.78588 | 30825 ft | 486 kts | 11° |
| 2026-05-06 16:13 | 50.39867 | 21.81094 | 30824 ft | 487 kts | 11° |
| 2026-05-06 16:14 | 50.46431 | 21.83626 | 30820 ft | 486 kts | 11° |
| 2026-05-06 16:14 | 50.53027 | 21.86178 | 30821 ft | 486 kts | 11° |
| 2026-05-06 16:15 | 50.59531 | 21.88700 | 30815 ft | 487 kts | 11° |
| 2026-05-06 16:15 | 50.66126 | 21.91266 | 30814 ft | 487 kts | 11° |
| 2026-05-06 16:16 | 50.72644 | 21.93808 | 30811 ft | 487 kts | 11° |
| 2026-05-06 16:16 | 50.79220 | 21.96381 | 30811 ft | 488 kts | 11° |
| 2026-05-06 16:17 | 50.85809 | 21.98967 | 30806 ft | 490 kts | 11° |
| 2026-05-06 16:17 | 50.92420 | 22.01568 | 30803 ft | 490 kts | 11° |
| 2026-05-06 16:18 | 50.98988 | 22.04161 | 30801 ft | 489 kts | 11° |
| 2026-05-06 16:18 | 51.05531 | 22.06751 | 30803 ft | 489 kts | 11° |
| 2026-05-06 16:19 | 51.12145 | 22.09377 | 30803 ft | 488 kts | 11° |
| 2026-05-06 16:19 | 51.18691 | 22.11983 | 30801 ft | 488 kts | 11° |
| 2026-05-06 16:20 | 51.25241 | 22.14598 | 30803 ft | 488 kts | 11° |
| 2026-05-06 16:20 | 51.31838 | 22.17240 | 30799 ft | 489 kts | 11° |
| 2026-05-06 16:21 | 51.38408 | 22.19880 | 30810 ft | 489 kts | 11° |
| 2026-05-06 16:21 | 51.44980 | 22.22527 | 30799 ft | 489 kts | 11° |
| 2026-05-06 16:22 | 51.51585 | 22.25196 | 30797 ft | 490 kts | 11° |
| 2026-05-06 16:22 | 51.58139 | 22.27853 | 30803 ft | 489 kts | 11° |
| 2026-05-06 16:23 | 51.64758 | 22.30543 | 30791 ft | 490 kts | 11° |
| 2026-05-06 16:23 | 51.71312 | 22.33216 | 30788 ft | 491 kts | 11° |
| 2026-05-06 16:24 | 51.77928 | 22.35921 | 30787 ft | 490 kts | 11° |
| 2026-05-06 16:24 | 51.84496 | 22.38616 | 30783 ft | 490 kts | 11° |
| 2026-05-06 16:25 | 51.91071 | 22.41321 | 30785 ft | 490 kts | 11° |
| 2026-05-06 16:25 | 51.97668 | 22.44043 | 30788 ft | 490 kts | 11° |
| 2026-05-06 16:26 | 52.04238 | 22.46763 | 30794 ft | 490 kts | 11° |
| 2026-05-06 16:26 | 52.10836 | 22.49502 | 30793 ft | 491 kts | 11° |
| 2026-05-06 16:27 | 52.17428 | 22.52247 | 30782 ft | 491 kts | 11° |
| 2026-05-06 16:27 | 52.24043 | 22.55010 | 30784 ft | 492 kts | 11° |
| 2026-05-06 16:28 | 52.30676 | 22.57790 | 30775 ft | 492 kts | 10° |
| 2026-05-06 16:28 | 52.37305 | 22.60576 | 30777 ft | 492 kts | 10° |
| 2026-05-06 16:29 | 52.43880 | 22.63349 | 30780 ft | 492 kts | 10° |
| 2026-05-06 16:29 | 52.50507 | 22.66151 | 30773 ft | 493 kts | 11° |
| 2026-05-06 16:30 | 52.56026 | 22.68492 | 30773 ft | 494 kts | 11° |
| 2026-05-06 16:30 | 52.63795 | 22.71798 | 30764 ft | 494 kts | 11° |
| 2026-05-06 16:31 | 52.70411 | 22.74622 | 30765 ft | 495 kts | 11° |
| 2026-05-06 16:31 | 52.77076 | 22.77476 | 30765 ft | 496 kts | 11° |
| 2026-05-06 16:32 | 52.83736 | 22.80337 | 30760 ft | 498 kts | 11° |
| 2026-05-06 16:32 | 52.90468 | 22.83239 | 30756 ft | 498 kts | 11° |
| 2026-05-06 16:33 | 52.97162 | 22.86133 | 30756 ft | 500 kts | 11° |
| 2026-05-06 16:34 | 53.07167 | 22.90477 | 30756 ft | 498 kts | 11° |
| 2026-05-06 16:34 | 53.13849 | 22.93390 | 30748 ft | 497 kts | 11° |
| 2026-05-06 16:35 | 53.20518 | 22.96306 | 30749 ft | 498 kts | 11° |
| 2026-05-06 16:35 | 53.27229 | 22.99250 | 30748 ft | 498 kts | 11° |
| 2026-05-06 16:36 | 53.33901 | 23.02186 | 30753 ft | 499 kts | 11° |
| 2026-05-06 16:36 | 53.40607 | 23.05147 | 30761 ft | 501 kts | 11° |
| 2026-05-06 16:37 | 53.47314 | 23.08118 | 30757 ft | 500 kts | 11° |
| 2026-05-06 16:37 | 53.54077 | 23.11124 | 30751 ft | 501 kts | 11° |
| 2026-05-06 16:38 | 53.60757 | 23.14102 | 30745 ft | 500 kts | 11° |
| 2026-05-06 16:38 | 53.67467 | 23.17104 | 30739 ft | 501 kts | 11° |
| 2026-05-06 16:39 | 53.74191 | 23.20122 | 30739 ft | 499 kts | 11° |
| 2026-05-06 16:39 | 53.80869 | 23.23129 | 30739 ft | 501 kts | 11° |
| 2026-05-06 16:40 | 53.87618 | 23.26178 | 30733 ft | 500 kts | 12° |
| 2026-05-06 16:40 | 53.94318 | 23.29215 | 30729 ft | 501 kts | 11° |
| 2026-05-06 16:41 | 54.01051 | 23.32278 | 30730 ft | 502 kts | 11° |
| 2026-05-06 16:41 | 54.07766 | 23.35343 | 30739 ft | 502 kts | 11° |
| 2026-05-06 16:42 | 54.14489 | 23.38425 | 30723 ft | 503 kts | 12° |
| 2026-05-06 16:42 | 54.20873 | 23.43337 | 30735 ft | 508 kts | 31° |
| 2026-05-06 16:43 | 54.26482 | 23.50726 | 30736 ft | 509 kts | 37° |
| 2026-05-06 16:43 | 54.31930 | 23.58352 | 30742 ft | 510 kts | 38° |
| 2026-05-06 16:44 | 54.37385 | 23.66044 | 30741 ft | 509 kts | 39° |
| 2026-05-06 16:44 | 54.42821 | 23.73752 | 30739 ft | 508 kts | 39° |
| 2026-05-06 16:45 | 54.48266 | 23.81509 | 30742 ft | 509 kts | 39° |
| 2026-05-06 16:45 | 54.53699 | 23.89281 | 30743 ft | 509 kts | 39° |
| 2026-05-06 16:46 | 54.59139 | 23.97094 | 30796 ft | 519 kts | 39° |
| 2026-05-06 16:46 | 54.61916 | 24.01092 | 31129 ft | 523 kts | 39° |
| 2026-05-06 16:46 | 54.64701 | 24.05112 | 31767 ft | 519 kts | 39° |
| 2026-05-06 16:46 | 54.67412 | 24.09033 | 32485 ft | 514 kts | 39° |
| 2026-05-06 16:47 | 54.70168 | 24.13025 | 32749 ft | 517 kts | 39° |
| 2026-05-06 16:47 | 54.75625 | 24.20949 | 32764 ft | 513 kts | 39° |
| 2026-05-06 16:48 | 54.81074 | 24.28892 | 32771 ft | 514 kts | 39° |
| 2026-05-06 16:48 | 54.86513 | 24.36849 | 32774 ft | 513 kts | 39° |
| 2026-05-06 16:49 | 54.91950 | 24.44833 | 32781 ft | 513 kts | 39° |
| 2026-05-06 16:49 | 54.97370 | 24.52821 | 32792 ft | 513 kts | 40° |
| 2026-05-06 16:50 | 55.02786 | 24.60832 | 32796 ft | 513 kts | 40° |
| 2026-05-06 16:50 | 55.08203 | 24.68875 | 32798 ft | 512 kts | 41° |
| 2026-05-06 16:51 | 55.13616 | 24.76943 | 32783 ft | 512 kts | 41° |
| 2026-05-06 16:51 | 55.19030 | 24.85040 | 32774 ft | 513 kts | 41° |
| 2026-05-06 16:52 | 55.24425 | 24.93139 | 32773 ft | 513 kts | 41° |
| 2026-05-06 16:52 | 55.29839 | 25.01298 | 32790 ft | 514 kts | 41° |
| 2026-05-06 16:53 | 55.35228 | 25.09449 | 32797 ft | 514 kts | 41° |
| 2026-05-06 16:53 | 55.40598 | 25.17601 | 32795 ft | 513 kts | 41° |
| 2026-05-06 16:54 | 55.45977 | 25.25798 | 32802 ft | 515 kts | 41° |
| 2026-05-06 16:54 | 55.51396 | 25.34087 | 32808 ft | 513 kts | 41° |
| 2026-05-06 16:55 | 55.56781 | 25.42354 | 32811 ft | 514 kts | 41° |
| 2026-05-06 16:55 | 55.62154 | 25.50635 | 32815 ft | 514 kts | 41° |
| 2026-05-06 16:56 | 55.67522 | 25.58940 | 32821 ft | 514 kts | 41° |
| 2026-05-06 16:56 | 55.72890 | 25.67276 | 32829 ft | 515 kts | 42° |
| 2026-05-06 16:57 | 55.78243 | 25.75620 | 32824 ft | 514 kts | 42° |
| 2026-05-06 16:57 | 55.83599 | 25.84002 | 32828 ft | 515 kts | 42° |
| 2026-05-06 16:58 | 55.88952 | 25.92409 | 32840 ft | 513 kts | 42° |
| 2026-05-06 16:58 | 55.93950 | 26.01337 | 32834 ft | 511 kts | 54° |
| 2026-05-06 16:59 | 55.97346 | 26.12248 | 32837 ft | 506 kts | 71° |
| 2026-05-06 16:59 | 55.99765 | 26.23987 | 32853 ft | 506 kts | 73° |
| 2026-05-06 17:00 | 56.02115 | 26.35838 | 32867 ft | 506 kts | 73° |
| 2026-05-06 17:00 | 56.04411 | 26.47626 | 32883 ft | 504 kts | 73° |
| 2026-05-06 17:01 | 56.06687 | 26.59457 | 32886 ft | 507 kts | 73° |
| 2026-05-06 17:01 | 56.08960 | 26.71387 | 32878 ft | 505 kts | 74° |
| 2026-05-06 17:02 | 56.11196 | 26.83218 | 32863 ft | 507 kts | 74° |
| 2026-05-06 17:02 | 56.13435 | 26.95149 | 32864 ft | 506 kts | 75° |
| 2026-05-06 17:03 | 56.15664 | 27.07113 | 32864 ft | 509 kts | 74° |
| 2026-05-06 17:03 | 56.17873 | 27.19044 | 32876 ft | 507 kts | 74° |
| 2026-05-06 17:04 | 56.20095 | 27.31130 | 32879 ft | 507 kts | 74° |
| 2026-05-06 17:04 | 56.22288 | 27.43130 | 32879 ft | 507 kts | 74° |
| 2026-05-06 17:05 | 56.24477 | 27.55190 | 32884 ft | 508 kts | 74° |
| 2026-05-06 17:05 | 56.26644 | 27.67203 | 32883 ft | 507 kts | 75° |
| 2026-05-06 17:06 | 56.28792 | 27.79196 | 32891 ft | 508 kts | 75° |
| 2026-05-06 17:06 | 56.30954 | 27.91338 | 32895 ft | 507 kts | 75° |
| 2026-05-06 17:07 | 56.33073 | 28.03326 | 32897 ft | 507 kts | 75° |
| 2026-05-06 17:07 | 56.34958 | 28.15528 | 32896 ft | 504 kts | 84° |
| 2026-05-06 17:08 | 56.35027 | 28.28005 | 32906 ft | 497 kts | 101° |
| 2026-05-06 17:08 | 56.34053 | 28.40305 | 32903 ft | 498 kts | 103° |
| 2026-05-06 17:09 | 56.32997 | 28.52573 | 32898 ft | 497 kts | 103° |
| 2026-05-06 17:09 | 56.31902 | 28.64836 | 32897 ft | 498 kts | 103° |
| 2026-05-06 17:10 | 56.30777 | 28.77125 | 32894 ft | 499 kts | 104° |
| 2026-05-06 17:10 | 56.29626 | 28.89459 | 32893 ft | 501 kts | 104° |
| 2026-05-06 17:11 | 56.28465 | 29.01733 | 32891 ft | 501 kts | 104° |
| 2026-05-06 17:11 | 56.27287 | 29.14093 | 32891 ft | 501 kts | 104° |
| 2026-05-06 17:12 | 56.26116 | 29.26377 | 32889 ft | 500 kts | 103° |
| 2026-05-06 17:12 | 56.24926 | 29.38705 | 32892 ft | 502 kts | 103° |
| 2026-05-06 17:13 | 56.23723 | 29.51039 | 32889 ft | 503 kts | 103° |
| 2026-05-06 17:13 | 56.22511 | 29.63317 | 32880 ft | 503 kts | 103° |
| 2026-05-06 17:14 | 56.21279 | 29.75668 | 32886 ft | 503 kts | 104° |
| 2026-05-06 17:14 | 56.20039 | 29.87959 | 32887 ft | 503 kts | 104° |
| 2026-05-06 17:15 | 56.18779 | 30.00327 | 32890 ft | 503 kts | 104° |
| 2026-05-06 17:15 | 56.17516 | 30.12594 | 32889 ft | 502 kts | 104° |
| 2026-05-06 17:16 | 56.16245 | 30.24811 | 32889 ft | 502 kts | 103° |
| 2026-05-06 17:16 | 56.14951 | 30.37090 | 32888 ft | 501 kts | 103° |
| 2026-05-06 17:17 | 56.13657 | 30.49221 | 32893 ft | 501 kts | 103° |
| 2026-05-06 17:17 | 56.12340 | 30.61493 | 32892 ft | 500 kts | 103° |
| 2026-05-06 17:18 | 56.11028 | 30.73674 | 32885 ft | 499 kts | 104° |
| 2026-05-06 17:18 | 56.09709 | 30.85806 | 32888 ft | 499 kts | 104° |
| 2026-05-06 17:19 | 56.08379 | 30.97926 | 32884 ft | 497 kts | 104° |
| 2026-05-06 17:19 | 56.07057 | 31.09974 | 32885 ft | 496 kts | 104° |
| 2026-05-06 17:20 | 56.05732 | 31.22030 | 32889 ft | 497 kts | 104° |
| 2026-05-06 17:20 | 56.04385 | 31.34163 | 32889 ft | 497 kts | 103° |
| 2026-05-06 17:21 | 56.03035 | 31.46199 | 32890 ft | 496 kts | 103° |
| 2026-05-06 17:21 | 56.01672 | 31.58239 | 32883 ft | 494 kts | 103° |
| 2026-05-06 17:22 | 56.00311 | 31.70144 | 32884 ft | 494 kts | 104° |
| 2026-05-06 17:22 | 55.98925 | 31.82172 | 32878 ft | 492 kts | 104° |
| 2026-05-06 17:23 | 55.97532 | 31.94130 | 32882 ft | 494 kts | 104° |
| 2026-05-06 17:23 | 55.96125 | 32.06104 | 32886 ft | 493 kts | 104° |
| 2026-05-06 17:24 | 55.94719 | 32.17954 | 32883 ft | 493 kts | 104° |
| 2026-05-06 17:24 | 55.93286 | 32.29939 | 32883 ft | 492 kts | 104° |
| 2026-05-06 17:25 | 55.91852 | 32.41819 | 32883 ft | 492 kts | 104° |
| 2026-05-06 17:25 | 55.90409 | 32.53669 | 32890 ft | 492 kts | 104° |
| 2026-05-06 17:26 | 55.88952 | 32.65535 | 32895 ft | 491 kts | 105° |
| 2026-05-06 17:26 | 55.87483 | 32.77394 | 32887 ft | 489 kts | 105° |
| 2026-05-06 17:27 | 55.86012 | 32.89198 | 32885 ft | 491 kts | 103° |
| 2026-05-06 17:27 | 55.85610 | 33.01276 | 32894 ft | 493 kts | 88° |
| 2026-05-06 17:28 | 55.86006 | 33.13471 | 32890 ft | 494 kts | 88° |
| 2026-05-06 17:28 | 55.86392 | 33.25621 | 32895 ft | 494 kts | 88° |
| 2026-05-06 17:29 | 55.86760 | 33.37785 | 32897 ft | 494 kts | 88° |
| 2026-05-06 17:29 | 55.87114 | 33.50035 | 32900 ft | 494 kts | 88° |
| 2026-05-06 17:30 | 55.87450 | 33.62173 | 32904 ft | 494 kts | 88° |
| 2026-05-06 17:30 | 55.87776 | 33.74369 | 32904 ft | 495 kts | 89° |
| 2026-05-06 17:31 | 55.88088 | 33.86552 | 32907 ft | 494 kts | 89° |
| 2026-05-06 17:31 | 55.88388 | 33.98754 | 32907 ft | 494 kts | 89° |
| 2026-05-06 17:32 | 55.88674 | 34.10868 | 32908 ft | 493 kts | 89° |
| 2026-05-06 17:32 | 55.88949 | 34.22963 | 32062 ft | 489 kts | 89° |
| 2026-05-06 17:32 | 55.89082 | 34.29048 | 31093 ft | 492 kts | 89° |
| 2026-05-06 17:33 | 55.89212 | 34.35102 | 30302 ft | 491 kts | 89° |
| 2026-05-06 17:33 | 55.89335 | 34.41109 | 29894 ft | 482 kts | 89° |
| 2026-05-06 17:33 | 55.89450 | 34.47008 | 29429 ft | 475 kts | 89° |
| 2026-05-06 17:33 | 55.89561 | 34.52871 | 28905 ft | 470 kts | 89° |
| 2026-05-06 17:34 | 55.89667 | 34.58570 | 28389 ft | 468 kts | 89° |
| 2026-05-06 17:34 | 55.89772 | 34.64466 | 27854 ft | 479 kts | 89° |
| 2026-05-06 17:34 | 55.89875 | 34.70346 | 27300 ft | 479 kts | 90° |
| 2026-05-06 17:34 | 55.89976 | 34.76255 | 26746 ft | 475 kts | 90° |
| 2026-05-06 17:35 | 55.90073 | 34.82078 | 26198 ft | 469 kts | 90° |
| 2026-05-06 17:35 | 55.90166 | 34.87808 | 25653 ft | 464 kts | 90° |
| 2026-05-06 17:35 | 55.90255 | 34.93471 | 25115 ft | 460 kts | 90° |
| 2026-05-06 17:36 | 55.90425 | 35.04814 | 24023 ft | 457 kts | 90° |
| 2026-05-06 17:36 | 55.90509 | 35.10436 | 23478 ft | 454 kts | 90° |
| 2026-05-06 17:36 | 55.90591 | 35.16007 | 22936 ft | 451 kts | 90° |
| 2026-05-06 17:36 | 55.90670 | 35.21582 | 22385 ft | 447 kts | 90° |
| 2026-05-06 17:37 | 55.90745 | 35.27034 | 21846 ft | 443 kts | 90° |
| 2026-05-06 17:37 | 55.90818 | 35.32481 | 21293 ft | 440 kts | 90° |
| 2026-05-06 17:37 | 55.90888 | 35.37901 | 20746 ft | 436 kts | 90° |
| 2026-05-06 17:37 | 55.90953 | 35.43196 | 20202 ft | 432 kts | 90° |
| 2026-05-06 17:38 | 55.91017 | 35.48506 | 19656 ft | 429 kts | 90° |
| 2026-05-06 17:38 | 55.91078 | 35.53799 | 19107 ft | 425 kts | 90° |
| 2026-05-06 17:38 | 55.91137 | 35.59037 | 18572 ft | 422 kts | 90° |
| 2026-05-06 17:38 | 55.91192 | 35.64238 | 18026 ft | 419 kts | 90° |
| 2026-05-06 17:39 | 55.91245 | 35.69382 | 17493 ft | 416 kts | 91° |
| 2026-05-06 17:39 | 55.91295 | 35.74441 | 17146 ft | 407 kts | 90° |
| 2026-05-06 17:39 | 55.91342 | 35.79382 | 17048 ft | 392 kts | 90° |
| 2026-05-06 17:39 | 55.91399 | 35.84123 | 16928 ft | 379 kts | 87° |
| 2026-05-06 17:40 | 55.91691 | 35.88743 | 16649 ft | 373 kts | 83° |
| 2026-05-06 17:40 | 55.92043 | 35.93305 | 16193 ft | 374 kts | 83° |
| 2026-05-06 17:40 | 55.92399 | 35.97908 | 15723 ft | 372 kts | 83° |
| 2026-05-06 17:40 | 55.92747 | 36.02454 | 15304 ft | 369 kts | 83° |
| 2026-05-06 17:41 | 55.93084 | 36.06897 | 14921 ft | 366 kts | 82° |
| 2026-05-06 17:41 | 55.93667 | 36.11280 | 14485 ft | 363 kts | 67° |
| 2026-05-06 17:41 | 55.94873 | 36.15178 | 14094 ft | 357 kts | 50° |
| 2026-05-06 17:41 | 55.96604 | 36.18315 | 13723 ft | 351 kts | 34° |
| 2026-05-06 17:42 | 55.98585 | 36.20711 | 13504 ft | 341 kts | 26° |
| 2026-05-06 17:42 | 56.00608 | 36.22760 | 13282 ft | 332 kts | 24° |
| 2026-05-06 17:42 | 56.02633 | 36.24643 | 13053 ft | 323 kts | 21° |
| 2026-05-06 17:42 | 56.04634 | 36.26286 | 12831 ft | 316 kts | 18° |
| 2026-05-06 17:43 | 56.06656 | 36.27802 | 12487 ft | 316 kts | 17° |
| 2026-05-06 17:43 | 56.08696 | 36.29279 | 12132 ft | 313 kts | 17° |
| 2026-05-06 17:43 | 56.10686 | 36.30709 | 11809 ft | 310 kts | 17° |
| 2026-05-06 17:43 | 56.12694 | 36.32149 | 11483 ft | 307 kts | 17° |
| 2026-05-06 17:44 | 56.14637 | 36.33543 | 11161 ft | 306 kts | 17° |
| 2026-05-06 17:44 | 56.16592 | 36.35081 | 10880 ft | 307 kts | 26° |
| 2026-05-06 17:44 | 56.18362 | 36.37223 | 10595 ft | 308 kts | 32° |
| 2026-05-06 17:44 | 56.20079 | 36.39536 | 10280 ft | 305 kts | 32° |
| 2026-05-06 17:45 | 56.21755 | 36.41808 | 9968 ft | 302 kts | 32° |
| 2026-05-06 17:45 | 56.23417 | 36.44051 | 9589 ft | 302 kts | 32° |
| 2026-05-06 17:45 | 56.25056 | 36.46392 | 9183 ft | 305 kts | 43° |
| 2026-05-06 17:45 | 56.26192 | 36.49616 | 8806 ft | 307 kts | 66° |
| 2026-05-06 17:46 | 56.26856 | 36.53248 | 8514 ft | 305 kts | 72° |
| 2026-05-06 17:46 | 56.27410 | 36.56879 | 8204 ft | 302 kts | 73° |
| 2026-05-06 17:46 | 56.27953 | 36.60534 | 7886 ft | 300 kts | 73° |
| 2026-05-06 17:46 | 56.28482 | 36.64094 | 7579 ft | 298 kts | 73° |
| 2026-05-06 17:47 | 56.29089 | 36.67627 | 7247 ft | 294 kts | 65° |
| 2026-05-06 17:47 | 56.29950 | 36.70960 | 7026 ft | 288 kts | 62° |
| 2026-05-06 17:47 | 56.30821 | 36.74197 | 7009 ft | 292 kts | 62° |
| 2026-05-06 17:47 | 56.31712 | 36.77497 | 6999 ft | 292 kts | 62° |
| 2026-05-06 17:48 | 56.32592 | 36.80758 | 7005 ft | 291 kts | 62° |
| 2026-05-06 17:48 | 56.33481 | 36.84055 | 6998 ft | 291 kts | 62° |
| 2026-05-06 17:48 | 56.34341 | 36.87260 | 6990 ft | 284 kts | 62° |
| 2026-05-06 17:48 | 56.35191 | 36.90436 | 6988 ft | 280 kts | 62° |
| 2026-05-06 17:49 | 56.36041 | 36.93619 | 6993 ft | 279 kts | 62° |
| 2026-05-06 17:49 | 56.36872 | 36.96743 | 6997 ft | 279 kts | 62° |
| 2026-05-06 17:49 | 56.37707 | 36.99902 | 6992 ft | 279 kts | 62° |
| 2026-05-06 17:49 | 56.38538 | 37.03052 | 6998 ft | 280 kts | 62° |
| 2026-05-06 17:50 | 56.39371 | 37.06214 | 6997 ft | 276 kts | 62° |
| 2026-05-06 17:50 | 56.40172 | 37.09280 | 6995 ft | 270 kts | 62° |
| 2026-05-06 17:50 | 56.40971 | 37.12338 | 7001 ft | 269 kts | 62° |
| 2026-05-06 17:50 | 56.41766 | 37.15391 | 6995 ft | 269 kts | 62° |
| 2026-05-06 17:51 | 56.42557 | 37.18457 | 6996 ft | 270 kts | 62° |
| 2026-05-06 17:51 | 56.43270 | 37.21626 | 6983 ft | 283 kts | 78° |
| 2026-05-06 17:51 | 56.43182 | 37.25098 | 6977 ft | 273 kts | 111° |
| 2026-05-06 17:51 | 56.42245 | 37.27929 | 6975 ft | 263 kts | 141° |
| 2026-05-06 17:52 | 56.40727 | 37.29634 | 6993 ft | 253 kts | 169° |
| 2026-05-06 17:52 | 56.39023 | 37.30143 | 7006 ft | 247 kts | 181° |
| 2026-05-06 17:52 | 56.37319 | 37.30421 | 7002 ft | 246 kts | 181° |
| 2026-05-06 17:52 | 56.35630 | 37.30689 | 7000 ft | 245 kts | 181° |
| 2026-05-06 17:53 | 56.33932 | 37.30956 | 7006 ft | 246 kts | 181° |
| 2026-05-06 17:53 | 56.32235 | 37.31223 | 7004 ft | 246 kts | 181° |
| 2026-05-06 17:53 | 56.30533 | 37.31482 | 7004 ft | 246 kts | 184° |
| 2026-05-06 17:53 | 56.28864 | 37.30934 | 7001 ft | 242 kts | 212° |
| 2026-05-06 17:54 | 56.27512 | 37.29284 | 6995 ft | 232 kts | 222° |
| 2026-05-06 17:54 | 56.26252 | 37.27526 | 7008 ft | 228 kts | 222° |
| 2026-05-06 17:54 | 56.25015 | 37.25794 | 7016 ft | 228 kts | 222° |
| 2026-05-06 17:54 | 56.23768 | 37.24050 | 7031 ft | 227 kts | 222° |
| 2026-05-06 17:55 | 56.22513 | 37.22296 | 7011 ft | 227 kts | 222° |
| 2026-05-06 17:55 | 56.21256 | 37.20540 | 7013 ft | 228 kts | 222° |
| 2026-05-06 17:55 | 56.20029 | 37.18829 | 6996 ft | 225 kts | 222° |
| 2026-05-06 17:55 | 56.18793 | 37.17106 | 7019 ft | 226 kts | 222° |
| 2026-05-06 17:56 | 56.17544 | 37.15364 | 7013 ft | 228 kts | 222° |
| 2026-05-06 17:56 | 56.16310 | 37.13648 | 6960 ft | 222 kts | 222° |
| 2026-05-06 17:56 | 56.15082 | 37.11942 | 6580 ft | 225 kts | 222° |
| 2026-05-06 17:56 | 56.13855 | 37.10237 | 6279 ft | 224 kts | 222° |
| 2026-05-06 17:57 | 56.12619 | 37.08521 | 5939 ft | 223 kts | 221° |
| 2026-05-06 17:57 | 56.11405 | 37.06838 | 5688 ft | 221 kts | 221° |
| 2026-05-06 17:57 | 56.10196 | 37.05162 | 5425 ft | 222 kts | 221° |
| 2026-05-06 17:57 | 56.08967 | 37.03461 | 5141 ft | 220 kts | 221° |
| 2026-05-06 17:58 | 56.07776 | 37.01815 | 4907 ft | 217 kts | 221° |
| 2026-05-06 17:58 | 56.06601 | 37.00190 | 4643 ft | 214 kts | 221° |
| 2026-05-06 17:58 | 56.05431 | 36.98575 | 4400 ft | 209 kts | 221° |
| 2026-05-06 17:58 | 56.04314 | 36.97035 | 4332 ft | 201 kts | 220° |
| 2026-05-06 17:59 | 56.03198 | 36.95495 | 4273 ft | 201 kts | 220° |
| 2026-05-06 17:59 | 56.02097 | 36.93977 | 4211 ft | 201 kts | 220° |
| 2026-05-06 17:59 | 56.01004 | 36.92470 | 4128 ft | 201 kts | 220° |
| 2026-05-06 17:59 | 55.99718 | 36.91382 | 4043 ft | 215 kts | 188° |
| 2026-05-06 18:00 | 55.98276 | 36.91856 | 3992 ft | 213 kts | 149° |
| 2026-05-06 18:00 | 55.97297 | 36.93748 | 3950 ft | 213 kts | 112° |
| 2026-05-06 18:00 | 55.96876 | 36.96257 | 3885 ft | 208 kts | 102° |
| 2026-05-06 18:00 | 55.96532 | 36.98734 | 3681 ft | 203 kts | 102° |
| 2026-05-06 18:01 | 55.96199 | 37.01132 | 3465 ft | 198 kts | 102° |
| 2026-05-06 18:01 | 55.95869 | 37.03515 | 3399 ft | 197 kts | 102° |
| 2026-05-06 18:01 | 55.95546 | 37.05846 | 3345 ft | 190 kts | 102° |
| 2026-05-06 18:01 | 55.95232 | 37.08109 | 3275 ft | 187 kts | 102° |
| 2026-05-06 18:02 | 55.94922 | 37.10335 | 3189 ft | 185 kts | 101° |
| 2026-05-06 18:02 | 55.94613 | 37.12546 | 3112 ft | 184 kts | 101° |
| 2026-05-06 18:02 | 55.94307 | 37.14747 | 3048 ft | 184 kts | 101° |
| 2026-05-06 18:02 | 55.94001 | 37.16945 | 2979 ft | 184 kts | 101° |
| 2026-05-06 18:03 | 55.93769 | 37.19197 | 2858 ft | 181 kts | 82° |
| 2026-05-06 18:03 | 55.94067 | 37.21293 | 2605 ft | 169 kts | 66° |
| 2026-05-06 18:03 | 55.94390 | 37.23183 | 2407 ft | 151 kts | 68° |
| 2026-05-06 18:03 | 55.94652 | 37.24936 | 2215 ft | 145 kts | 68° |
| 2026-05-06 18:04 | 55.94908 | 37.26640 | 2032 ft | 143 kts | 68° |
| 2026-05-06 18:04 | 55.95168 | 37.28348 | 1840 ft | 141 kts | 68° |
| 2026-05-06 18:04 | 55.95412 | 37.30009 | 1659 ft | 138 kts | 66° |
| 2026-05-06 18:04 | 55.95665 | 37.31663 | 1457 ft | 137 kts | 67° |
| 2026-05-06 18:05 | 55.95913 | 37.33299 | 1277 ft | 138 kts | 66° |
| 2026-05-06 18:05 | 55.96160 | 37.34958 | 1094 ft | 139 kts | 69° |
| 2026-05-06 18:05 | 55.96409 | 37.36641 | 913 ft | 139 kts | 68° |
| 2026-05-06 18:05 | 55.96658 | 37.38307 | 718 ft | 140 kts | 69° |
| 2026-05-06 18:06 | 55.96904 | 37.39946 | 645 ft | 129 kts | 70° |
| 2026-05-06 18:06 | 55.97109 | 37.41268 | 643 ft | 88 kts | 73° |
| 2026-05-06 18:06 | 55.97228 | 37.42057 | 643 ft | 44 kts | 75° |
| 2026-05-06 18:06 | 55.97282 | 37.42421 | 643 ft | 26 kts | 74° |
| 2026-05-06 18:07 | 55.97324 | 37.42702 | 643 ft | 20 kts | 74° |
| 2026-05-06 18:07 | 55.97351 | 37.42873 | 643 ft | 8 kts | 73° |
| 2026-05-06 18:07 | 55.97382 | 37.42942 | 643 ft | 6 kts | 15° |
| 2026-05-06 18:07 | 55.97427 | 37.42936 | 643 ft | 6 kts | 346° |
| 2026-05-06 18:08 | 55.97484 | 37.42911 | 643 ft | 10 kts | 346° |
| 2026-05-06 18:08 | 55.97566 | 37.42874 | 643 ft | 13 kts | 345° |
| 2026-05-06 18:08 | 55.97651 | 37.42833 | 643 ft | 12 kts | 345° |
| 2026-05-06 18:08 | 55.97728 | 37.42796 | 643 ft | 10 kts | 343° |
| 2026-05-06 18:09 | 55.97762 | 37.42717 | 643 ft | 9 kts | 263° |
| 2026-05-06 18:09 | 55.97744 | 37.42580 | 643 ft | 16 kts | 255° |
| 2026-05-06 18:09 | 55.97710 | 37.42358 | 643 ft | 18 kts | 254° |
| 2026-05-06 18:09 | 55.97678 | 37.42141 | 643 ft | 16 kts | 255° |
| 2026-05-06 18:10 | 55.97651 | 37.41957 | 643 ft | 14 kts | 255° |
| 2026-05-06 18:10 | 55.97626 | 37.41792 | 643 ft | 13 kts | 255° |
| 2026-05-06 18:10 | 55.97612 | 37.41667 | 643 ft | 9 kts | 278° |
| 2026-05-06 18:10 | 55.97650 | 37.41600 | 643 ft | 7 kts | 333° |
| 2026-05-06 18:11 | 55.97680 | 37.41540 | 643 ft | 7 kts | 287° |
| 2026-05-06 18:11 | 55.97728 | 37.41473 | 643 ft | 11 kts | 340° |
| 2026-05-06 18:11 | 55.97783 | 37.41443 | 643 ft | 7 kts | 345° |
| 2026-05-06 18:11 | 55.97828 | 37.41423 | 643 ft | 6 kts | 346° |
| 2026-05-06 18:12 | 55.97868 | 37.41404 | 643 ft | 5 kts | 345° |
| 2026-05-06 18:12 | 55.97905 | 37.41387 | 643 ft | 6 kts | 345° |
| 2026-05-06 18:12 | 55.97956 | 37.41363 | 643 ft | 7 kts | 345° |
| 2026-05-06 18:12 | 55.98004 | 37.41330 | 643 ft | 7 kts | 322° |
| 2026-05-06 18:13 | 55.98012 | 37.41259 | 643 ft | 6 kts | 256° |
| 2026-05-06 18:13 | 55.98005 | 37.41214 | 643 ft | 2 kts | 255° |
| 2026-05-06 18:13 | 55.98003 | 37.41198 | 643 ft | 1 kts | 255° |
| 2026-05-06 18:13 | 55.98002 | 37.41195 | 643 ft | 0 kts | 255° |